sensor_id;sensor_type;location;lat;lon;timestamp;P1;durP1;ratioP1;P2;durP2;ratioP2
11034;SDS011;5571;48.110;-1.706;2024-02-14T00:02:11;7.53;;;1.97;;
11034;SDS011;5571;48.110;-1.706;2024-02-14T00:04:37;8.60;;;2.70;;
11034;SDS011;5571;48.110;-1.706;2024-02-14T00:07:03;6.30;;;2.30;;
11034;SDS011;5571;48.110;-1.706;2024-02-14T00:09:29;2.57;;;1.90;;
11034;SDS011;5571;48.110;-1.706;2024-02-14T00:11:55;6.63;;;2.23;;
11034;SDS011;5571;48.110;-1.706;2024-02-14T00:14:20;6.63;;;1.90;;
11034;SDS011;5571;48.110;-1.706;2024-02-14T00:16:46;4.77;;;2.17;;
11034;SDS011;5571;48.110;-1.706;2024-02-14T00:19:12;5.03;;;1.80;;
11034;SDS011;5571;48.110;-1.706;2024-02-14T00:21:38;8.23;;;2.27;;
11034;SDS011;5571;48.110;-1.706;2024-02-14T00:24:04;5.30;;;1.93;;
11034;SDS011;5571;48.110;-1.706;2024-02-14T00:26:30;7.20;;;1.80;;
11034;SDS011;5571;48.110;-1.706;2024-02-14T00:28:56;7.60;;;1.77;;
11034;SDS011;5571;48.110;-1.706;2024-02-14T00:31:22;6.30;;;1.80;;
11034;SDS011;5571;48.110;-1.706;2024-02-14T00:33:47;4.77;;;1.80;;
11034;SDS011;5571;48.110;-1.706;2024-02-14T00:36:13;6.60;;;1.80;;
11034;SDS011;5571;48.110;-1.706;2024-02-14T00:38:39;7.10;;;2.30;;
11034;SDS011;5571;48.110;-1.706;2024-02-14T00:41:04;5.43;;;2.00;;
11034;SDS011;5571;48.110;-1.706;2024-02-14T00:43:30;6.90;;;2.13;;
11034;SDS011;5571;48.110;-1.706;2024-02-14T00:45:55;6.20;;;1.90;;
11034;SDS011;5571;48.110;-1.706;2024-02-14T00:48:22;6.50;;;1.77;;
11034;SDS011;5571;48.110;-1.706;2024-02-14T00:50:48;14.03;;;2.30;;
11034;SDS011;5571;48.110;-1.706;2024-02-14T00:53:14;9.13;;;2.07;;
11034;SDS011;5571;48.110;-1.706;2024-02-14T00:55:39;10.87;;;2.33;;
11034;SDS011;5571;48.110;-1.706;2024-02-14T00:58:05;9.17;;;2.30;;
11034;SDS011;5571;48.110;-1.706;2024-02-14T01:00:31;8.53;;;2.30;;
11034;SDS011;5571;48.110;-1.706;2024-02-14T01:02:57;10.27;;;2.53;;
11034;SDS011;5571;48.110;-1.706;2024-02-14T01:05:23;9.50;;;2.50;;
11034;SDS011;5571;48.110;-1.706;2024-02-14T01:07:49;9.57;;;2.47;;
11034;SDS011;5571;48.110;-1.706;2024-02-14T01:10:15;8.83;;;2.53;;
11034;SDS011;5571;48.110;-1.706;2024-02-14T01:12:40;6.37;;;2.20;;
11034;SDS011;5571;48.110;-1.706;2024-02-14T01:15:06;11.43;;;3.00;;
11034;SDS011;5571;48.110;-1.706;2024-02-14T01:17:32;11.27;;;2.80;;
11034;SDS011;5571;48.110;-1.706;2024-02-14T01:20:01;10.07;;;2.80;;
11034;SDS011;5571;48.110;-1.706;2024-02-14T01:22:28;15.87;;;3.20;;
11034;SDS011;5571;48.110;-1.706;2024-02-14T01:24:53;12.80;;;3.03;;
11034;SDS011;5571;48.110;-1.706;2024-02-14T01:27:19;14.93;;;3.10;;
11034;SDS011;5571;48.110;-1.706;2024-02-14T01:29:47;10.43;;;3.03;;
11034;SDS011;5571;48.110;-1.706;2024-02-14T01:32:13;16.17;;;3.63;;
11034;SDS011;5571;48.110;-1.706;2024-02-14T01:34:38;14.90;;;3.10;;
11034;SDS011;5571;48.110;-1.706;2024-02-14T01:37:04;16.37;;;3.50;;
11034;SDS011;5571;48.110;-1.706;2024-02-14T01:39:30;17.23;;;3.43;;
11034;SDS011;5571;48.110;-1.706;2024-02-14T01:41:56;14.90;;;3.83;;
11034;SDS011;5571;48.110;-1.706;2024-02-14T01:44:21;19.77;;;3.73;;
11034;SDS011;5571;48.110;-1.706;2024-02-14T01:46:47;18.13;;;4.10;;
11034;SDS011;5571;48.110;-1.706;2024-02-14T01:49:12;21.30;;;4.67;;
11034;SDS011;5571;48.110;-1.706;2024-02-14T01:51:39;15.10;;;3.50;;
11034;SDS011;5571;48.110;-1.706;2024-02-14T01:54:09;16.80;;;3.80;;
11034;SDS011;5571;48.110;-1.706;2024-02-14T01:56:36;22.20;;;4.27;;
11034;SDS011;5571;48.110;-1.706;2024-02-14T01:59:02;18.23;;;3.97;;
11034;SDS011;5571;48.110;-1.706;2024-02-14T02:01:31;23.57;;;4.37;;
11034;SDS011;5571;48.110;-1.706;2024-02-14T02:03:57;21.00;;;4.17;;
11034;SDS011;5571;48.110;-1.706;2024-02-14T02:06:23;20.23;;;4.30;;
11034;SDS011;5571;48.110;-1.706;2024-02-14T02:08:51;23.60;;;4.50;;
11034;SDS011;5571;48.110;-1.706;2024-02-14T02:11:17;27.47;;;4.20;;
11034;SDS011;5571;48.110;-1.706;2024-02-14T02:13:42;22.90;;;4.70;;
11034;SDS011;5571;48.110;-1.706;2024-02-14T02:16:08;21.97;;;4.50;;
11034;SDS011;5571;48.110;-1.706;2024-02-14T02:18:34;25.47;;;4.60;;
11034;SDS011;5571;48.110;-1.706;2024-02-14T02:21:00;23.87;;;4.37;;
11034;SDS011;5571;48.110;-1.706;2024-02-14T02:23:29;22.60;;;4.13;;
11034;SDS011;5571;48.110;-1.706;2024-02-14T02:25:56;23.80;;;4.60;;
11034;SDS011;5571;48.110;-1.706;2024-02-14T02:28:21;20.57;;;4.43;;
11034;SDS011;5571;48.110;-1.706;2024-02-14T02:30:47;24.47;;;4.60;;
11034;SDS011;5571;48.110;-1.706;2024-02-14T02:33:13;24.97;;;4.50;;
11034;SDS011;5571;48.110;-1.706;2024-02-14T02:35:41;29.70;;;5.07;;
11034;SDS011;5571;48.110;-1.706;2024-02-14T02:38:07;23.20;;;4.30;;
11034;SDS011;5571;48.110;-1.706;2024-02-14T02:40:33;27.23;;;5.30;;
11034;SDS011;5571;48.110;-1.706;2024-02-14T02:42:58;31.83;;;5.30;;
11034;SDS011;5571;48.110;-1.706;2024-02-14T02:45:25;32.00;;;5.03;;
11034;SDS011;5571;48.110;-1.706;2024-02-14T02:47:51;25.20;;;4.27;;
11034;SDS011;5571;48.110;-1.706;2024-02-14T02:50:17;29.67;;;4.33;;
11034;SDS011;5571;48.110;-1.706;2024-02-14T02:52:44;28.93;;;5.63;;
11034;SDS011;5571;48.110;-1.706;2024-02-14T02:55:10;25.37;;;4.77;;
11034;SDS011;5571;48.110;-1.706;2024-02-14T02:57:36;29.17;;;5.20;;
11034;SDS011;5571;48.110;-1.706;2024-02-14T03:00:04;26.10;;;4.57;;
11034;SDS011;5571;48.110;-1.706;2024-02-14T03:02:32;32.43;;;4.80;;
11034;SDS011;5571;48.110;-1.706;2024-02-14T03:04:59;29.00;;;4.13;;
11034;SDS011;5571;48.110;-1.706;2024-02-14T03:07:25;23.80;;;4.53;;
11034;SDS011;5571;48.110;-1.706;2024-02-14T03:09:51;27.90;;;5.20;;
11034;SDS011;5571;48.110;-1.706;2024-02-14T03:12:17;24.27;;;4.77;;
11034;SDS011;5571;48.110;-1.706;2024-02-14T03:14:43;23.80;;;4.20;;
11034;SDS011;5571;48.110;-1.706;2024-02-14T03:17:09;25.97;;;5.03;;
11034;SDS011;5571;48.110;-1.706;2024-02-14T03:19:35;24.37;;;4.40;;
11034;SDS011;5571;48.110;-1.706;2024-02-14T03:22:04;24.77;;;4.20;;
11034;SDS011;5571;48.110;-1.706;2024-02-14T03:24:33;26.70;;;4.33;;
11034;SDS011;5571;48.110;-1.706;2024-02-14T03:27:02;19.60;;;4.00;;
11034;SDS011;5571;48.110;-1.706;2024-02-14T03:29:29;23.67;;;4.30;;
11034;SDS011;5571;48.110;-1.706;2024-02-14T03:31:55;26.47;;;4.43;;
11034;SDS011;5571;48.110;-1.706;2024-02-14T03:34:23;22.07;;;3.67;;
11034;SDS011;5571;48.110;-1.706;2024-02-14T03:36:50;23.27;;;3.90;;
11034;SDS011;5571;48.110;-1.706;2024-02-14T03:39:15;24.67;;;3.70;;
11034;SDS011;5571;48.110;-1.706;2024-02-14T03:41:42;19.13;;;3.80;;
11034;SDS011;5571;48.110;-1.706;2024-02-14T03:44:07;14.43;;;3.90;;
11034;SDS011;5571;48.110;-1.706;2024-02-14T03:46:33;27.67;;;4.07;;
11034;SDS011;5571;48.110;-1.706;2024-02-14T03:49:00;26.70;;;4.27;;
11034;SDS011;5571;48.110;-1.706;2024-02-14T03:51:26;27.60;;;3.97;;
11034;SDS011;5571;48.110;-1.706;2024-02-14T03:53:52;31.20;;;4.33;;
11034;SDS011;5571;48.110;-1.706;2024-02-14T03:56:17;21.40;;;3.60;;
11034;SDS011;5571;48.110;-1.706;2024-02-14T03:58:43;18.20;;;3.50;;
11034;SDS011;5571;48.110;-1.706;2024-02-14T04:01:09;23.60;;;3.57;;
11034;SDS011;5571;48.110;-1.706;2024-02-14T04:03:34;20.23;;;3.90;;
11034;SDS011;5571;48.110;-1.706;2024-02-14T04:06:00;19.57;;;3.87;;
11034;SDS011;5571;48.110;-1.706;2024-02-14T04:08:26;24.40;;;4.30;;
11034;SDS011;5571;48.110;-1.706;2024-02-14T04:10:52;20.03;;;3.87;;
11034;SDS011;5571;48.110;-1.706;2024-02-14T04:13:19;20.40;;;3.57;;
11034;SDS011;5571;48.110;-1.706;2024-02-14T04:15:45;21.37;;;3.53;;
11034;SDS011;5571;48.110;-1.706;2024-02-14T04:18:12;23.17;;;3.80;;
11034;SDS011;5571;48.110;-1.706;2024-02-14T04:20:39;18.43;;;3.97;;
11034;SDS011;5571;48.110;-1.706;2024-02-14T04:23:06;21.33;;;3.50;;
11034;SDS011;5571;48.110;-1.706;2024-02-14T04:25:32;26.83;;;3.83;;
11034;SDS011;5571;48.110;-1.706;2024-02-14T04:27:58;17.43;;;3.50;;
11034;SDS011;5571;48.110;-1.706;2024-02-14T04:30:24;20.93;;;3.80;;
11034;SDS011;5571;48.110;-1.706;2024-02-14T04:32:50;21.93;;;3.70;;
11034;SDS011;5571;48.110;-1.706;2024-02-14T04:35:17;21.67;;;3.30;;
11034;SDS011;5571;48.110;-1.706;2024-02-14T04:37:45;18.97;;;3.17;;
11034;SDS011;5571;48.110;-1.706;2024-02-14T04:40:14;19.97;;;3.30;;
11034;SDS011;5571;48.110;-1.706;2024-02-14T04:42:40;17.00;;;3.37;;
11034;SDS011;5571;48.110;-1.706;2024-02-14T04:45:07;18.20;;;3.33;;
11034;SDS011;5571;48.110;-1.706;2024-02-14T04:47:33;13.73;;;3.30;;
11034;SDS011;5571;48.110;-1.706;2024-02-14T04:49:59;19.47;;;3.47;;
11034;SDS011;5571;48.110;-1.706;2024-02-14T04:52:26;15.70;;;3.20;;
11034;SDS011;5571;48.110;-1.706;2024-02-14T04:54:52;15.57;;;3.37;;
11034;SDS011;5571;48.110;-1.706;2024-02-14T04:57:17;15.53;;;2.90;;
11034;SDS011;5571;48.110;-1.706;2024-02-14T04:59:46;15.83;;;2.87;;
11034;SDS011;5571;48.110;-1.706;2024-02-14T05:02:12;22.20;;;3.43;;
11034;SDS011;5571;48.110;-1.706;2024-02-14T05:04:37;18.13;;;3.37;;
11034;SDS011;5571;48.110;-1.706;2024-02-14T05:07:04;16.83;;;3.07;;
11034;SDS011;5571;48.110;-1.706;2024-02-14T05:09:30;18.63;;;2.90;;
11034;SDS011;5571;48.110;-1.706;2024-02-14T05:11:55;15.57;;;3.60;;
11034;SDS011;5571;48.110;-1.706;2024-02-14T05:14:21;21.60;;;3.50;;
11034;SDS011;5571;48.110;-1.706;2024-02-14T05:16:48;18.93;;;3.17;;
11034;SDS011;5571;48.110;-1.706;2024-02-14T05:19:13;17.60;;;3.67;;
11034;SDS011;5571;48.110;-1.706;2024-02-14T05:21:39;21.50;;;3.80;;
11034;SDS011;5571;48.110;-1.706;2024-02-14T05:24:05;21.93;;;4.13;;
11034;SDS011;5571;48.110;-1.706;2024-02-14T05:26:31;19.47;;;3.30;;
11034;SDS011;5571;48.110;-1.706;2024-02-14T05:28:57;20.53;;;3.23;;
11034;SDS011;5571;48.110;-1.706;2024-02-14T05:31:24;18.20;;;3.80;;
11034;SDS011;5571;48.110;-1.706;2024-02-14T05:33:49;22.17;;;4.40;;
11034;SDS011;5571;48.110;-1.706;2024-02-14T05:36:15;22.10;;;3.97;;
11034;SDS011;5571;48.110;-1.706;2024-02-14T05:38:42;21.53;;;3.63;;
11034;SDS011;5571;48.110;-1.706;2024-02-14T05:41:07;22.37;;;3.50;;
11034;SDS011;5571;48.110;-1.706;2024-02-14T05:43:33;20.77;;;3.50;;
11034;SDS011;5571;48.110;-1.706;2024-02-14T05:45:59;25.03;;;3.80;;
11034;SDS011;5571;48.110;-1.706;2024-02-14T05:48:25;16.73;;;3.47;;
11034;SDS011;5571;48.110;-1.706;2024-02-14T05:50:51;20.97;;;3.60;;
11034;SDS011;5571;48.110;-1.706;2024-02-14T05:53:16;24.10;;;3.70;;
11034;SDS011;5571;48.110;-1.706;2024-02-14T05:55:42;20.60;;;3.83;;
11034;SDS011;5571;48.110;-1.706;2024-02-14T05:58:08;20.00;;;4.50;;
11034;SDS011;5571;48.110;-1.706;2024-02-14T06:00:34;24.10;;;4.13;;
11034;SDS011;5571;48.110;-1.706;2024-02-14T06:03:00;24.70;;;3.90;;
11034;SDS011;5571;48.110;-1.706;2024-02-14T06:05:27;22.67;;;4.20;;
11034;SDS011;5571;48.110;-1.706;2024-02-14T06:07:52;20.23;;;3.60;;
11034;SDS011;5571;48.110;-1.706;2024-02-14T06:10:18;28.90;;;4.53;;
11034;SDS011;5571;48.110;-1.706;2024-02-14T06:12:43;20.97;;;3.77;;
11034;SDS011;5571;48.110;-1.706;2024-02-14T06:15:09;23.33;;;4.20;;
11034;SDS011;5571;48.110;-1.706;2024-02-14T06:17:35;22.40;;;4.17;;
11034;SDS011;5571;48.110;-1.706;2024-02-14T06:20:01;28.97;;;4.83;;
11034;SDS011;5571;48.110;-1.706;2024-02-14T06:22:32;29.30;;;4.40;;
11034;SDS011;5571;48.110;-1.706;2024-02-14T06:24:58;21.97;;;4.00;;
11034;SDS011;5571;48.110;-1.706;2024-02-14T06:27:24;25.00;;;4.20;;
11034;SDS011;5571;48.110;-1.706;2024-02-14T06:29:50;23.20;;;4.20;;
11034;SDS011;5571;48.110;-1.706;2024-02-14T06:32:15;22.40;;;4.37;;
11034;SDS011;5571;48.110;-1.706;2024-02-14T06:34:41;23.83;;;4.43;;
11034;SDS011;5571;48.110;-1.706;2024-02-14T06:37:06;26.30;;;3.73;;
11034;SDS011;5571;48.110;-1.706;2024-02-14T06:39:32;21.57;;;4.13;;
11034;SDS011;5571;48.110;-1.706;2024-02-14T06:41:58;32.50;;;4.63;;
11034;SDS011;5571;48.110;-1.706;2024-02-14T06:44:23;22.23;;;4.03;;
11034;SDS011;5571;48.110;-1.706;2024-02-14T06:46:49;25.50;;;4.00;;
11034;SDS011;5571;48.110;-1.706;2024-02-14T06:49:18;27.80;;;3.90;;
11034;SDS011;5571;48.110;-1.706;2024-02-14T06:51:44;26.03;;;4.40;;
11034;SDS011;5571;48.110;-1.706;2024-02-14T06:54:10;23.30;;;3.90;;
11034;SDS011;5571;48.110;-1.706;2024-02-14T06:56:37;26.67;;;4.40;;
11034;SDS011;5571;48.110;-1.706;2024-02-14T06:59:03;22.80;;;3.40;;
11034;SDS011;5571;48.110;-1.706;2024-02-14T07:01:29;23.63;;;4.60;;
11034;SDS011;5571;48.110;-1.706;2024-02-14T07:03:55;22.77;;;4.77;;
11034;SDS011;5571;48.110;-1.706;2024-02-14T07:06:21;29.93;;;4.47;;
11034;SDS011;5571;48.110;-1.706;2024-02-14T07:08:47;27.50;;;4.47;;
11034;SDS011;5571;48.110;-1.706;2024-02-14T07:11:13;19.90;;;3.57;;
11034;SDS011;5571;48.110;-1.706;2024-02-14T07:13:38;22.17;;;3.80;;
11034;SDS011;5571;48.110;-1.706;2024-02-14T07:16:04;17.67;;;3.97;;
11034;SDS011;5571;48.110;-1.706;2024-02-14T07:18:30;24.27;;;4.50;;
11034;SDS011;5571;48.110;-1.706;2024-02-14T07:20:55;19.93;;;4.30;;
11034;SDS011;5571;48.110;-1.706;2024-02-14T07:23:21;25.00;;;4.40;;
11034;SDS011;5571;48.110;-1.706;2024-02-14T07:25:47;19.20;;;3.83;;
11034;SDS011;5571;48.110;-1.706;2024-02-14T07:28:12;22.03;;;3.70;;
11034;SDS011;5571;48.110;-1.706;2024-02-14T07:30:38;21.53;;;4.03;;
11034;SDS011;5571;48.110;-1.706;2024-02-14T07:33:04;20.77;;;4.33;;
11034;SDS011;5571;48.110;-1.706;2024-02-14T07:35:29;20.33;;;3.60;;
11034;SDS011;5571;48.110;-1.706;2024-02-14T07:37:55;22.57;;;3.90;;
11034;SDS011;5571;48.110;-1.706;2024-02-14T07:40:21;20.47;;;4.10;;
11034;SDS011;5571;48.110;-1.706;2024-02-14T07:42:47;17.60;;;3.53;;
11034;SDS011;5571;48.110;-1.706;2024-02-14T07:45:13;21.30;;;3.73;;
11034;SDS011;5571;48.110;-1.706;2024-02-14T07:47:39;21.13;;;3.53;;
11034;SDS011;5571;48.110;-1.706;2024-02-14T07:50:05;23.23;;;4.13;;
11034;SDS011;5571;48.110;-1.706;2024-02-14T07:52:31;17.53;;;3.83;;
11034;SDS011;5571;48.110;-1.706;2024-02-14T07:54:57;21.57;;;4.10;;
11034;SDS011;5571;48.110;-1.706;2024-02-14T07:57:23;20.43;;;3.60;;
11034;SDS011;5571;48.110;-1.706;2024-02-14T07:59:49;18.23;;;3.50;;
11034;SDS011;5571;48.110;-1.706;2024-02-14T08:02:21;16.93;;;3.10;;
11034;SDS011;5571;48.110;-1.706;2024-02-14T08:04:47;18.13;;;3.53;;
11034;SDS011;5571;48.110;-1.706;2024-02-14T08:07:12;14.30;;;3.03;;
11034;SDS011;5571;48.110;-1.706;2024-02-14T08:09:38;20.63;;;4.00;;
11034;SDS011;5571;48.110;-1.706;2024-02-14T08:12:04;23.83;;;3.87;;
11034;SDS011;5571;48.110;-1.706;2024-02-14T08:14:30;25.87;;;3.70;;
11034;SDS011;5571;48.110;-1.706;2024-02-14T08:16:56;17.57;;;4.10;;
11034;SDS011;5571;48.110;-1.706;2024-02-14T08:19:22;19.63;;;3.70;;
11034;SDS011;5571;48.110;-1.706;2024-02-14T08:21:47;17.20;;;3.60;;
11034;SDS011;5571;48.110;-1.706;2024-02-14T08:24:13;16.87;;;3.93;;
11034;SDS011;5571;48.110;-1.706;2024-02-14T08:26:38;18.10;;;3.53;;
11034;SDS011;5571;48.110;-1.706;2024-02-14T08:29:04;22.83;;;3.57;;
11034;SDS011;5571;48.110;-1.706;2024-02-14T08:31:30;22.57;;;3.70;;
11034;SDS011;5571;48.110;-1.706;2024-02-14T08:33:56;26.87;;;4.47;;
11034;SDS011;5571;48.110;-1.706;2024-02-14T08:36:21;18.23;;;3.67;;
11034;SDS011;5571;48.110;-1.706;2024-02-14T08:38:47;24.93;;;4.07;;
11034;SDS011;5571;48.110;-1.706;2024-02-14T08:41:13;18.20;;;4.03;;
11034;SDS011;5571;48.110;-1.706;2024-02-14T08:43:43;20.30;;;3.97;;
11034;SDS011;5571;48.110;-1.706;2024-02-14T08:46:09;16.33;;;3.30;;
11034;SDS011;5571;48.110;-1.706;2024-02-14T08:48:39;17.47;;;3.53;;
11034;SDS011;5571;48.110;-1.706;2024-02-14T08:51:10;20.37;;;3.70;;
11034;SDS011;5571;48.110;-1.706;2024-02-14T08:53:39;18.93;;;3.57;;
11034;SDS011;5571;48.110;-1.706;2024-02-14T08:56:07;18.27;;;4.07;;
11034;SDS011;5571;48.110;-1.706;2024-02-14T08:58:34;22.03;;;4.60;;
11034;SDS011;5571;48.110;-1.706;2024-02-14T09:01:00;19.83;;;3.70;;
11034;SDS011;5571;48.110;-1.706;2024-02-14T09:03:26;27.23;;;4.07;;
11034;SDS011;5571;48.110;-1.706;2024-02-14T09:05:52;23.00;;;4.17;;
11034;SDS011;5571;48.110;-1.706;2024-02-14T09:08:18;18.37;;;3.63;;
11034;SDS011;5571;48.110;-1.706;2024-02-14T09:10:45;16.70;;;3.63;;
11034;SDS011;5571;48.110;-1.706;2024-02-14T09:13:11;20.43;;;3.63;;
11034;SDS011;5571;48.110;-1.706;2024-02-14T09:15:37;25.43;;;4.23;;
11034;SDS011;5571;48.110;-1.706;2024-02-14T09:18:02;23.97;;;3.67;;
11034;SDS011;5571;48.110;-1.706;2024-02-14T09:20:28;24.37;;;4.77;;
11034;SDS011;5571;48.110;-1.706;2024-02-14T09:22:55;21.57;;;4.40;;
11034;SDS011;5571;48.110;-1.706;2024-02-14T09:25:21;20.17;;;4.60;;
11034;SDS011;5571;48.110;-1.706;2024-02-14T09:27:49;15.63;;;3.50;;
11034;SDS011;5571;48.110;-1.706;2024-02-14T09:30:14;16.43;;;3.90;;
11034;SDS011;5571;48.110;-1.706;2024-02-14T09:32:42;18.70;;;3.67;;
11034;SDS011;5571;48.110;-1.706;2024-02-14T09:35:12;19.63;;;3.27;;
11034;SDS011;5571;48.110;-1.706;2024-02-14T09:37:38;18.03;;;3.40;;
11034;SDS011;5571;48.110;-1.706;2024-02-14T09:40:04;15.60;;;3.50;;
11034;SDS011;5571;48.110;-1.706;2024-02-14T09:42:43;22.57;;;3.90;;
11034;SDS011;5571;48.110;-1.706;2024-02-14T09:45:12;22.47;;;3.67;;
11034;SDS011;5571;48.110;-1.706;2024-02-14T09:47:38;26.17;;;3.60;;
11034;SDS011;5571;48.110;-1.706;2024-02-14T09:50:05;17.50;;;4.03;;
11034;SDS011;5571;48.110;-1.706;2024-02-14T09:52:33;25.17;;;5.00;;
11034;SDS011;5571;48.110;-1.706;2024-02-14T09:54:58;24.00;;;3.63;;
11034;SDS011;5571;48.110;-1.706;2024-02-14T09:57:27;22.97;;;4.20;;
11034;SDS011;5571;48.110;-1.706;2024-02-14T09:59:54;20.20;;;4.13;;
11034;SDS011;5571;48.110;-1.706;2024-02-14T10:02:21;22.17;;;4.13;;
11034;SDS011;5571;48.110;-1.706;2024-02-14T10:04:47;17.63;;;3.87;;
11034;SDS011;5571;48.110;-1.706;2024-02-14T10:07:12;22.17;;;4.30;;
11034;SDS011;5571;48.110;-1.706;2024-02-14T10:09:41;24.37;;;3.93;;
11034;SDS011;5571;48.110;-1.706;2024-02-14T10:12:08;20.43;;;4.00;;
11034;SDS011;5571;48.110;-1.706;2024-02-14T10:14:34;28.63;;;4.77;;
11034;SDS011;5571;48.110;-1.706;2024-02-14T10:17:01;21.03;;;4.00;;
11034;SDS011;5571;48.110;-1.706;2024-02-14T10:19:28;21.63;;;3.50;;
11034;SDS011;5571;48.110;-1.706;2024-02-14T10:21:57;15.37;;;3.60;;
11034;SDS011;5571;48.110;-1.706;2024-02-14T10:24:28;18.93;;;3.60;;
11034;SDS011;5571;48.110;-1.706;2024-02-14T10:26:55;17.90;;;3.30;;
11034;SDS011;5571;48.110;-1.706;2024-02-14T10:29:24;14.00;;;3.23;;
11034;SDS011;5571;48.110;-1.706;2024-02-14T10:31:50;22.43;;;3.97;;
11034;SDS011;5571;48.110;-1.706;2024-02-14T10:34:18;17.80;;;3.97;;
11034;SDS011;5571;48.110;-1.706;2024-02-14T10:36:45;17.37;;;3.40;;
11034;SDS011;5571;48.110;-1.706;2024-02-14T10:39:11;16.90;;;3.53;;
11034;SDS011;5571;48.110;-1.706;2024-02-14T10:41:38;15.73;;;4.00;;
11034;SDS011;5571;48.110;-1.706;2024-02-14T10:44:04;17.03;;;3.77;;
11034;SDS011;5571;48.110;-1.706;2024-02-14T10:46:31;17.00;;;3.47;;
11034;SDS011;5571;48.110;-1.706;2024-02-14T10:49:04;12.60;;;3.40;;
11034;SDS011;5571;48.110;-1.706;2024-02-14T10:51:32;14.17;;;3.83;;
11034;SDS011;5571;48.110;-1.706;2024-02-14T10:54:00;17.50;;;3.60;;
11034;SDS011;5571;48.110;-1.706;2024-02-14T10:56:31;13.63;;;3.30;;
11034;SDS011;5571;48.110;-1.706;2024-02-14T10:58:57;18.63;;;3.67;;
11034;SDS011;5571;48.110;-1.706;2024-02-14T11:01:27;13.17;;;3.43;;
11034;SDS011;5571;48.110;-1.706;2024-02-14T11:03:56;16.90;;;3.87;;
11034;SDS011;5571;48.110;-1.706;2024-02-14T11:06:23;16.40;;;4.10;;
11034;SDS011;5571;48.110;-1.706;2024-02-14T11:08:56;16.77;;;3.40;;
11034;SDS011;5571;48.110;-1.706;2024-02-14T11:11:32;12.27;;;3.67;;
11034;SDS011;5571;48.110;-1.706;2024-02-14T11:13:58;14.67;;;3.47;;
11034;SDS011;5571;48.110;-1.706;2024-02-14T11:16:25;14.40;;;3.70;;
11034;SDS011;5571;48.110;-1.706;2024-02-14T11:18:53;17.77;;;3.80;;
11034;SDS011;5571;48.110;-1.706;2024-02-14T11:21:19;11.17;;;2.93;;
11034;SDS011;5571;48.110;-1.706;2024-02-14T11:23:54;15.77;;;3.60;;
11034;SDS011;5571;48.110;-1.706;2024-02-14T11:26:20;12.03;;;3.53;;
11034;SDS011;5571;48.110;-1.706;2024-02-14T11:28:48;11.07;;;2.73;;
11034;SDS011;5571;48.110;-1.706;2024-02-14T11:31:16;9.73;;;2.70;;
11034;SDS011;5571;48.110;-1.706;2024-02-14T11:33:42;16.10;;;3.17;;
11034;SDS011;5571;48.110;-1.706;2024-02-14T11:36:11;15.07;;;3.10;;
11034;SDS011;5571;48.110;-1.706;2024-02-14T11:38:40;14.57;;;3.47;;
11034;SDS011;5571;48.110;-1.706;2024-02-14T11:41:06;14.27;;;3.13;;
11034;SDS011;5571;48.110;-1.706;2024-02-14T11:43:32;19.90;;;3.17;;
11034;SDS011;5571;48.110;-1.706;2024-02-14T11:45:57;17.87;;;3.50;;
11034;SDS011;5571;48.110;-1.706;2024-02-14T11:48:23;19.97;;;4.10;;
11034;SDS011;5571;48.110;-1.706;2024-02-14T11:50:49;17.10;;;3.30;;
11034;SDS011;5571;48.110;-1.706;2024-02-14T11:53:17;12.97;;;3.33;;
11034;SDS011;5571;48.110;-1.706;2024-02-14T11:55:44;16.43;;;3.53;;
11034;SDS011;5571;48.110;-1.706;2024-02-14T11:58:11;15.90;;;3.13;;
11034;SDS011;5571;48.110;-1.706;2024-02-14T12:00:39;13.47;;;3.17;;
11034;SDS011;5571;48.110;-1.706;2024-02-14T12:03:17;13.43;;;3.50;;
11034;SDS011;5571;48.110;-1.706;2024-02-14T12:05:45;13.70;;;3.63;;
11034;SDS011;5571;48.110;-1.706;2024-02-14T12:08:12;13.60;;;2.93;;
11034;SDS011;5571;48.110;-1.706;2024-02-14T12:10:39;12.73;;;3.10;;
11034;SDS011;5571;48.110;-1.706;2024-02-14T12:13:11;14.97;;;3.43;;
11034;SDS011;5571;48.110;-1.706;2024-02-14T12:15:40;12.80;;;2.80;;
11034;SDS011;5571;48.110;-1.706;2024-02-14T12:18:07;12.93;;;2.80;;
11034;SDS011;5571;48.110;-1.706;2024-02-14T12:20:34;13.03;;;3.23;;
11034;SDS011;5571;48.110;-1.706;2024-02-14T12:23:00;14.47;;;3.03;;
11034;SDS011;5571;48.110;-1.706;2024-02-14T12:25:26;15.13;;;3.23;;
11034;SDS011;5571;48.110;-1.706;2024-02-14T12:27:52;13.47;;;2.90;;
11034;SDS011;5571;48.110;-1.706;2024-02-14T12:30:18;17.63;;;3.10;;
11034;SDS011;5571;48.110;-1.706;2024-02-14T12:32:45;14.60;;;3.50;;
11034;SDS011;5571;48.110;-1.706;2024-02-14T12:35:11;7.97;;;2.67;;
11034;SDS011;5571;48.110;-1.706;2024-02-14T12:37:37;10.80;;;2.93;;
11034;SDS011;5571;48.110;-1.706;2024-02-14T12:40:03;12.27;;;2.67;;
11034;SDS011;5571;48.110;-1.706;2024-02-14T12:42:30;11.53;;;2.60;;
11034;SDS011;5571;48.110;-1.706;2024-02-14T12:44:57;12.23;;;2.53;;
11034;SDS011;5571;48.110;-1.706;2024-02-14T12:47:23;20.17;;;3.33;;
11034;SDS011;5571;48.110;-1.706;2024-02-14T12:49:50;12.93;;;3.40;;
11034;SDS011;5571;48.110;-1.706;2024-02-14T12:52:16;9.70;;;2.77;;
11034;SDS011;5571;48.110;-1.706;2024-02-14T12:54:41;9.47;;;3.10;;
11034;SDS011;5571;48.110;-1.706;2024-02-14T12:57:08;12.93;;;3.03;;
11034;SDS011;5571;48.110;-1.706;2024-02-14T12:59:34;11.07;;;2.70;;
11034;SDS011;5571;48.110;-1.706;2024-02-14T13:01:59;11.60;;;3.17;;
11034;SDS011;5571;48.110;-1.706;2024-02-14T13:04:25;9.00;;;2.80;;
11034;SDS011;5571;48.110;-1.706;2024-02-14T13:06:51;8.47;;;2.20;;
11034;SDS011;5571;48.110;-1.706;2024-02-14T13:09:17;13.20;;;3.17;;
11034;SDS011;5571;48.110;-1.706;2024-02-14T13:11:42;10.10;;;2.37;;
11034;SDS011;5571;48.110;-1.706;2024-02-14T13:14:08;8.23;;;2.63;;
11034;SDS011;5571;48.110;-1.706;2024-02-14T13:16:34;13.43;;;3.00;;
11034;SDS011;5571;48.110;-1.706;2024-02-14T13:19:00;13.13;;;3.20;;
11034;SDS011;5571;48.110;-1.706;2024-02-14T13:21:25;9.90;;;2.73;;
11034;SDS011;5571;48.110;-1.706;2024-02-14T13:23:51;9.35;;;2.85;;
11034;SDS011;5571;48.110;-1.706;2024-02-14T13:26:17;7.73;;;2.40;;
11034;SDS011;5571;48.110;-1.706;2024-02-14T13:28:42;12.03;;;2.70;;
11034;SDS011;5571;48.110;-1.706;2024-02-14T13:31:08;7.20;;;2.10;;
11034;SDS011;5571;48.110;-1.706;2024-02-14T13:33:35;9.53;;;2.53;;
11034;SDS011;5571;48.110;-1.706;2024-02-14T13:36:01;10.73;;;2.37;;
11034;SDS011;5571;48.110;-1.706;2024-02-14T13:38:26;7.70;;;2.45;;
11034;SDS011;5571;48.110;-1.706;2024-02-14T13:40:53;13.95;;;2.63;;
11034;SDS011;5571;48.110;-1.706;2024-02-14T13:43:19;9.43;;;2.35;;
11034;SDS011;5571;48.110;-1.706;2024-02-14T13:45:45;13.52;;;2.90;;
11034;SDS011;5571;48.110;-1.706;2024-02-14T13:48:12;11.07;;;2.73;;
11034;SDS011;5571;48.110;-1.706;2024-02-14T13:50:38;13.48;;;3.20;;
11034;SDS011;5571;48.110;-1.706;2024-02-14T13:53:04;11.00;;;2.33;;
11034;SDS011;5571;48.110;-1.706;2024-02-14T13:55:31;11.33;;;2.53;;
11034;SDS011;5571;48.110;-1.706;2024-02-14T13:57:56;9.00;;;2.23;;
11034;SDS011;5571;48.110;-1.706;2024-02-14T14:00:23;11.43;;;2.30;;
11034;SDS011;5571;48.110;-1.706;2024-02-14T14:02:48;7.30;;;2.73;;
11034;SDS011;5571;48.110;-1.706;2024-02-14T14:05:14;8.50;;;2.63;;
11034;SDS011;5571;48.110;-1.706;2024-02-14T14:07:40;9.27;;;2.50;;
11034;SDS011;5571;48.110;-1.706;2024-02-14T14:10:07;15.82;;;4.50;;
11034;SDS011;5571;48.110;-1.706;2024-02-14T14:12:34;13.73;;;2.90;;
11034;SDS011;5571;48.110;-1.706;2024-02-14T14:15:00;11.80;;;2.63;;
11034;SDS011;5571;48.110;-1.706;2024-02-14T14:17:26;12.10;;;2.70;;
11034;SDS011;5571;48.110;-1.706;2024-02-14T14:19:52;9.17;;;2.67;;
11034;SDS011;5571;48.110;-1.706;2024-02-14T14:22:18;10.10;;;2.63;;
11034;SDS011;5571;48.110;-1.706;2024-02-14T14:24:43;10.50;;;2.60;;
11034;SDS011;5571;48.110;-1.706;2024-02-14T14:27:09;10.37;;;2.93;;
11034;SDS011;5571;48.110;-1.706;2024-02-14T14:29:42;7.70;;;2.63;;
11034;SDS011;5571;48.110;-1.706;2024-02-14T14:32:08;9.07;;;2.43;;